createdAt,value
2023-01-21T00:01:19.347Z,-1.30
2023-01-21T00:03:47.888Z,-0.80
2023-01-21T00:06:16.321Z,-1.20
2023-01-21T00:08:44.763Z,-1.60
2023-01-21T00:11:16.328Z,-1.70
2023-01-21T00:13:45.604Z,-1.80
2023-01-21T00:16:15.169Z,-1.90
2023-01-21T00:18:43.243Z,-1.90
2023-01-21T00:21:11.595Z,-1.90
2023-01-21T00:23:39.593Z,-1.90
2023-01-21T00:26:11.743Z,-2.00
2023-01-21T00:28:41.653Z,-2.20
2023-01-21T00:31:11.951Z,-2.20
2023-01-21T00:33:43.113Z,-2.20
2023-01-21T00:36:13.854Z,-2.30
2023-01-21T00:38:42.081Z,-2.10
2023-01-21T00:41:12.540Z,-1.40
2023-01-21T00:43:41.587Z,-1.30
2023-01-21T00:46:10.436Z,-0.90
2023-01-21T00:48:39.053Z,-0.80
2023-01-21T00:51:09.823Z,-0.70
2023-01-21T00:53:41.848Z,-0.70
2023-01-21T00:56:13.081Z,-0.70
2023-01-21T00:58:43.295Z,-0.70
2023-01-21T01:01:14.638Z,-0.60
2023-01-21T01:03:44.167Z,-0.50
2023-01-21T01:06:17.143Z,-0.40
2023-01-21T01:08:46.254Z,-0.50
2023-01-21T01:11:15.375Z,-0.40
2023-01-21T01:13:44.993Z,-0.30
2023-01-21T01:16:18.304Z,-0.30
2023-01-21T01:18:46.578Z,-0.10
2023-01-21T01:21:19.184Z,-0.10
2023-01-21T01:23:48.649Z,-0.10
2023-01-21T01:26:18.450Z,-0.20
2023-01-21T01:28:46.879Z,0.10
2023-01-21T01:31:18.187Z,0.30
2023-01-21T01:33:47.232Z,0.30
2023-01-21T01:36:20.066Z,0.80
2023-01-21T01:38:48.179Z,0.90
2023-01-21T01:41:20.490Z,1.00
2023-01-21T01:43:59.541Z,0.90
2023-01-21T01:46:31.558Z,1.00
2023-01-21T01:49:10.158Z,0.90
2023-01-21T01:51:48.001Z,0.70
2023-01-21T01:54:20.775Z,0.90
2023-01-21T01:56:55.417Z,1.00
2023-01-21T01:59:24.066Z,1.10
2023-01-21T02:01:52.425Z,1.00
2023-01-21T02:04:26.335Z,0.90
2023-01-21T02:06:58.023Z,0.70
2023-01-21T02:09:29.732Z,0.60
2023-01-21T02:11:59.397Z,0.40
2023-01-21T02:14:28.052Z,0.30
2023-01-21T02:17:18.542Z,0.20
2023-01-21T02:20:33.408Z,0.20
2023-01-21T02:23:09.586Z,0.10
2023-01-21T02:26:31.313Z,0.10
2023-01-21T02:29:40.123Z,0.20
2023-01-21T02:32:40.470Z,0.20
2023-01-21T02:35:19.528Z,0.10
2023-01-21T02:37:55.662Z,0.10
2023-01-21T02:40:33.997Z,0.00
2023-01-21T02:43:10.469Z,0.00
2023-01-21T02:45:47.732Z,0.00
2023-01-21T02:48:21.744Z,0.00
2023-01-21T02:50:53.175Z,0.00
2023-01-21T02:53:27.537Z,0.00
2023-01-21T02:55:56.708Z,0.00
2023-01-21T02:58:31.328Z,-0.10
2023-01-21T03:01:14.636Z,-0.10
2023-01-21T03:04:05.413Z,-0.10
2023-01-21T03:07:00.298Z,-0.10
2023-01-21T03:09:31.222Z,-0.10
2023-01-21T03:12:18.580Z,-0.10
2023-01-21T03:15:18.663Z,-0.10
2023-01-21T03:17:54.848Z,-0.10
2023-01-21T03:20:29.930Z,-0.10
2023-01-21T03:23:04.746Z,-0.10
2023-01-21T03:25:35.959Z,-0.20
2023-01-21T03:28:09.579Z,-0.20
2023-01-21T03:30:42.628Z,-0.20
2023-01-21T03:33:13.753Z,-0.30
2023-01-21T03:35:46.516Z,-0.20
2023-01-21T03:38:23.671Z,-0.30
2023-01-21T03:40:57.887Z,-0.30
2023-01-21T03:43:26.240Z,-0.30
2023-01-21T03:46:04.115Z,-0.30
2023-01-21T03:48:43.590Z,-0.30
2023-01-21T03:51:17.576Z,-0.30
2023-01-21T03:53:52.175Z,-0.30
2023-01-21T03:56:20.050Z,-0.30
2023-01-21T03:58:48.120Z,-0.20
2023-01-21T04:01:16.063Z,-0.30
2023-01-21T04:03:44.261Z,-0.20
2023-01-21T04:06:15.599Z,-0.20
2023-01-21T04:08:43.593Z,-0.30
2023-01-21T04:11:12.962Z,-0.30
2023-01-21T04:13:41.036Z,-0.30
2023-01-21T04:16:09.990Z,-0.30
2023-01-21T04:18:38.055Z,-0.40
2023-01-21T04:21:06.002Z,-0.30
2023-01-21T04:23:33.970Z,-0.30
2023-01-21T04:26:01.903Z,-0.30
2023-01-21T04:28:31.189Z,-0.40
2023-01-21T04:30:59.077Z,-0.40
2023-01-21T04:33:27.440Z,-0.40
2023-01-21T04:35:58.693Z,-0.40
2023-01-21T04:38:26.788Z,-0.40
2023-01-21T04:40:54.955Z,-0.40
2023-01-21T04:43:22.884Z,-0.40
2023-01-21T04:45:52.211Z,-0.40
2023-01-21T04:48:22.938Z,-0.40
2023-01-21T04:50:50.927Z,-0.40
2023-01-21T04:53:18.839Z,-0.40
2023-01-21T04:55:46.851Z,-0.40
2023-01-21T04:58:14.753Z,-0.40
2023-01-21T05:00:42.700Z,-0.40
2023-01-21T05:03:11.976Z,-0.50
2023-01-21T05:05:40.000Z,-0.50
2023-01-21T05:08:08.111Z,-0.60
2023-01-21T05:10:36.046Z,-0.60
2023-01-21T05:13:04.052Z,-0.70
2023-01-21T05:15:32.542Z,-0.70
2023-01-21T05:18:00.719Z,-0.60
2023-01-21T05:20:30.119Z,-0.70
2023-01-21T05:22:58.510Z,-0.70
2023-01-21T05:25:26.517Z,-0.60
2023-01-21T05:27:55.741Z,-0.70
2023-01-21T05:30:24.130Z,-0.70
2023-01-21T05:32:52.956Z,-0.70
2023-01-21T05:35:21.800Z,-0.80
2023-01-21T05:37:51.733Z,-0.80
2023-01-21T05:40:20.323Z,-0.80
2023-01-21T05:42:48.777Z,-0.80
2023-01-21T05:45:16.873Z,-0.80
2023-01-21T05:47:44.909Z,-0.80
2023-01-21T05:50:13.924Z,-0.80
2023-01-21T05:52:41.850Z,-0.80
2023-01-21T05:55:11.295Z,-0.80
2023-01-21T05:57:39.157Z,-0.80
2023-01-21T06:00:09.707Z,-0.80
2023-01-21T06:02:37.820Z,-0.90
2023-01-21T06:05:06.885Z,-0.90
2023-01-21T06:07:34.796Z,-0.90
2023-01-21T06:10:02.723Z,-0.90
2023-01-21T06:12:31.983Z,-0.80
2023-01-21T06:15:00.456Z,-0.80
2023-01-21T06:17:28.412Z,-0.80
2023-01-21T06:19:56.328Z,-0.80
2023-01-21T06:22:24.268Z,-0.80
2023-01-21T06:24:52.172Z,-0.90
2023-01-21T06:27:20.084Z,-0.80
2023-01-21T06:29:49.363Z,-0.90
2023-01-21T06:32:17.953Z,-0.80
2023-01-21T06:34:46.756Z,-0.80
2023-01-21T06:37:14.701Z,-0.80
2023-01-21T06:39:42.749Z,-0.80
2023-01-21T06:42:10.607Z,-0.90
2023-01-21T06:44:38.512Z,-0.90
2023-01-21T06:47:07.791Z,-0.90
2023-01-21T06:49:35.719Z,-0.90
2023-01-21T06:52:03.896Z,-0.90
2023-01-21T06:54:31.845Z,-0.90
2023-01-21T06:57:00.104Z,-0.90
2023-01-21T06:59:28.013Z,-0.90
2023-01-21T07:01:58.889Z,-0.90
2023-01-21T07:04:29.017Z,-0.90
2023-01-21T07:06:57.137Z,-0.90
2023-01-21T07:09:25.066Z,-1.00
2023-01-21T07:11:52.969Z,-0.90
2023-01-21T07:14:20.862Z,-0.90
2023-01-21T07:16:48.823Z,-0.90
2023-01-21T07:19:16.847Z,-0.80
2023-01-21T07:21:46.211Z,-0.80
2023-01-21T07:24:14.150Z,-0.80
2023-01-21T07:26:43.203Z,-0.80
2023-01-21T07:29:11.450Z,-0.80
2023-01-21T07:31:39.487Z,-0.80
2023-01-21T07:34:07.546Z,-0.80
2023-01-21T07:36:35.442Z,-0.90
2023-01-21T07:39:04.810Z,-0.80
2023-01-21T07:41:32.745Z,-0.80
2023-01-21T07:44:00.683Z,-0.80
2023-01-21T07:46:29.655Z,-0.80
2023-01-21T07:48:58.039Z,-0.80
2023-01-21T07:51:26.055Z,-0.80
2023-01-21T07:53:56.685Z,-0.90
2023-01-21T07:56:26.863Z,-0.80
2023-01-21T07:58:54.912Z,-0.80
2023-01-21T08:01:26.916Z,-0.80
2023-01-21T08:03:54.826Z,-0.80
2023-01-21T08:06:22.757Z,-0.70
2023-01-21T08:08:50.711Z,-0.70
2023-01-21T08:11:18.913Z,-0.70
2023-01-21T08:13:50.356Z,-0.70
2023-01-21T08:16:18.297Z,-0.70
2023-01-21T08:18:46.303Z,-0.70
2023-01-21T08:21:14.189Z,-0.70
2023-01-21T08:23:42.168Z,-0.60
2023-01-21T08:26:10.257Z,-0.50
2023-01-21T08:28:38.217Z,-0.60
2023-01-21T08:31:11.030Z,-0.60
2023-01-21T08:33:40.072Z,-0.60
2023-01-21T08:36:10.801Z,-0.70
2023-01-21T08:38:40.035Z,-0.70
2023-01-21T08:41:07.906Z,-0.60
2023-01-21T08:43:35.819Z,-0.70
2023-01-21T08:46:03.903Z,-0.60
2023-01-21T08:48:33.113Z,-0.60
2023-01-21T08:51:01.560Z,-0.60
2023-01-21T08:53:29.577Z,-0.60
2023-01-21T08:56:01.335Z,-0.60
2023-01-21T08:58:30.726Z,-0.60
2023-01-21T09:00:59.332Z,-0.50
2023-01-21T09:03:27.255Z,-0.50
2023-01-21T09:06:01.166Z,-0.50
2023-01-21T09:08:29.076Z,-0.60
2023-01-21T09:11:02.215Z,-0.50
2023-01-21T09:13:31.265Z,-0.50
2023-01-21T09:15:59.412Z,-0.50
2023-01-21T09:18:27.962Z,-0.50
2023-01-21T09:21:02.224Z,-0.40
2023-01-21T09:23:34.065Z,-0.40
2023-01-21T09:26:05.307Z,-0.50
2023-01-21T09:28:35.281Z,-0.40
2023-01-21T09:31:06.350Z,-0.40
2023-01-21T09:33:37.690Z,-0.40
2023-01-21T09:36:09.595Z,-0.30
2023-01-21T09:38:37.572Z,-0.30
2023-01-21T09:41:22.203Z,-0.30
2023-01-21T09:43:59.898Z,-0.30
2023-01-21T09:46:39.390Z,-0.30
2023-01-21T09:49:17.433Z,-0.20
2023-01-21T09:51:57.000Z,-0.20
2023-01-21T09:54:28.927Z,-0.20
2023-01-21T09:57:23.720Z,-0.20
2023-01-21T10:00:09.264Z,-0.20
2023-01-21T10:02:51.781Z,-0.20
2023-01-21T10:05:51.753Z,-0.20
2023-01-21T10:08:32.587Z,-0.20
2023-01-21T10:11:20.330Z,-0.20
2023-01-21T10:14:14.286Z,-0.20
2023-01-21T10:16:53.040Z,-0.20
2023-01-21T10:19:29.861Z,-0.20
2023-01-21T10:22:05.549Z,-0.20
2023-01-21T10:24:41.490Z,-0.20
2023-01-21T10:27:17.134Z,-0.30
2023-01-21T10:29:45.459Z,-0.30
2023-01-21T10:32:22.259Z,-0.30
2023-01-21T10:34:54.196Z,-0.30
2023-01-21T10:37:33.678Z,-0.20
2023-01-21T10:40:17.360Z,-0.20
2023-01-21T10:42:59.316Z,-0.20
2023-01-21T10:45:41.136Z,-0.30
2023-01-21T10:48:18.751Z,-0.30
2023-01-21T10:50:55.973Z,-0.30
2023-01-21T10:53:34.363Z,-0.30
2023-01-21T10:56:18.841Z,-0.30
2023-01-21T10:58:51.868Z,-0.30
2023-01-21T11:01:28.542Z,-0.30
2023-01-21T11:04:00.330Z,-0.30
2023-01-21T11:06:33.303Z,-0.30
2023-01-21T11:09:05.312Z,-0.30
2023-01-21T11:11:37.309Z,-0.30
2023-01-21T11:14:05.328Z,-0.30
2023-01-21T11:16:40.707Z,-0.20
2023-01-21T11:19:09.678Z,-0.20
2023-01-21T11:21:39.944Z,-0.20
2023-01-21T11:24:23.574Z,-0.20
2023-01-21T11:26:55.733Z,-0.20
2023-01-21T11:29:26.555Z,-0.20
2023-01-21T11:32:03.890Z,-0.20
2023-01-21T11:34:32.457Z,-0.20
2023-01-21T11:37:03.943Z,-0.20
2023-01-21T11:39:35.888Z,-0.20
2023-01-21T11:42:14.675Z,-0.20
2023-01-21T11:44:54.168Z,-0.20
2023-01-21T11:47:39.054Z,-0.20
2023-01-21T11:50:15.433Z,-0.20
2023-01-21T11:52:43.626Z,-0.20
2023-01-21T11:55:21.581Z,-0.10
2023-01-21T11:57:57.349Z,-0.20
2023-01-21T12:00:28.109Z,-0.10
2023-01-21T12:03:00.961Z,-0.10
2023-01-21T12:05:34.576Z,-0.10
2023-01-21T12:08:05.686Z,0.00
2023-01-21T12:10:37.929Z,0.00
2023-01-21T12:13:24.369Z,0.10
2023-01-21T12:16:25.976Z,0.00
2023-01-21T12:19:29.129Z,0.00
2023-01-21T12:22:27.337Z,0.00
2023-01-21T12:25:31.383Z,0.00
2023-01-21T12:28:22.869Z,0.00
2023-01-21T12:31:06.939Z,0.10
2023-01-21T12:33:48.202Z,0.10
2023-01-21T12:36:22.012Z,0.00
2023-01-21T12:39:10.425Z,0.00
2023-01-21T12:41:41.649Z,0.00
2023-01-21T12:44:31.619Z,0.00
2023-01-21T12:47:10.835Z,0.00
2023-01-21T12:50:16.044Z,0.00
2023-01-21T12:53:02.102Z,0.00
2023-01-21T12:55:43.858Z,0.00
2023-01-21T12:58:19.396Z,0.00
2023-01-21T13:00:52.169Z,0.00
2023-01-21T13:03:38.348Z,0.10
2023-01-21T13:06:13.662Z,0.00
2023-01-21T13:08:56.841Z,0.10
2023-01-21T13:11:30.815Z,0.10
2023-01-21T13:14:22.451Z,0.10
2023-01-21T13:16:57.375Z,0.20
2023-01-21T13:19:26.815Z,0.20
2023-01-21T13:22:04.936Z,0.10
2023-01-21T13:24:35.354Z,0.10
2023-01-21T13:27:14.152Z,0.10
2023-01-21T13:29:52.673Z,0.10
2023-01-21T13:32:43.743Z,0.10
2023-01-21T13:35:32.312Z,0.10
2023-01-21T13:38:12.045Z,0.10
2023-01-21T13:40:52.210Z,0.10
2023-01-21T13:43:44.153Z,0.10
2023-01-21T13:46:31.295Z,0.20
2023-01-21T13:49:56.186Z,0.20
2023-01-21T13:52:35.261Z,0.20
2023-01-21T13:55:24.330Z,0.30
2023-01-21T13:58:05.928Z,0.30
2023-01-21T14:00:40.979Z,0.30
2023-01-21T14:03:26.568Z,0.30
2023-01-21T14:06:02.573Z,0.30
2023-01-21T14:08:41.991Z,0.30
2023-01-21T14:11:16.168Z,0.30
2023-01-21T14:14:28.751Z,0.30
2023-01-21T14:17:24.586Z,0.40
2023-01-21T14:20:30.023Z,0.30
2023-01-21T14:23:30.399Z,0.40
2023-01-21T14:26:25.549Z,0.40
2023-01-21T14:29:06.687Z,0.30
2023-01-21T14:31:42.050Z,0.30
2023-01-21T14:34:20.340Z,0.30
2023-01-21T14:37:03.323Z,0.30
2023-01-21T14:39:44.345Z,0.30
2023-01-21T14:42:17.346Z,0.20
2023-01-21T14:45:03.469Z,0.20
2023-01-21T14:47:52.629Z,0.20
2023-01-21T14:50:52.956Z,0.30
2023-01-21T14:53:25.943Z,0.30
2023-01-21T14:56:18.661Z,0.30
2023-01-21T14:58:50.699Z,0.30
2023-01-21T15:01:30.737Z,0.30
2023-01-21T15:04:02.497Z,0.30
2023-01-21T15:06:31.157Z,0.40
2023-01-21T15:09:01.460Z,0.40
2023-01-21T15:11:37.099Z,0.40
2023-01-21T15:14:15.052Z,0.40
2023-01-21T15:16:46.654Z,0.40
2023-01-21T15:19:31.182Z,0.40
2023-01-21T15:22:40.843Z,0.40
2023-01-21T15:25:33.199Z,0.50
2023-01-21T15:28:43.566Z,0.50
2023-01-21T15:31:36.515Z,0.50
2023-01-21T15:34:15.469Z,0.50
2023-01-21T15:36:47.190Z,0.50
2023-01-21T15:39:19.295Z,0.50
2023-01-21T15:42:10.183Z,0.50
2023-01-21T15:44:55.778Z,0.40
2023-01-21T15:47:55.852Z,0.40
2023-01-21T15:50:35.804Z,0.40
2023-01-21T15:53:56.234Z,0.50
2023-01-21T15:56:51.676Z,0.50
2023-01-21T15:59:40.551Z,0.50
2023-01-21T16:02:21.436Z,0.50
2023-01-21T16:05:16.091Z,0.50
2023-01-21T16:08:02.035Z,0.40
2023-01-21T16:10:41.437Z,0.40
2023-01-21T16:13:24.640Z,0.50
2023-01-21T16:16:14.664Z,0.40
2023-01-21T16:18:55.041Z,0.50
2023-01-21T16:21:28.668Z,0.50
2023-01-21T16:24:01.804Z,0.50
2023-01-21T16:26:33.121Z,0.50
2023-01-21T16:29:01.315Z,0.50
2023-01-21T16:31:29.360Z,0.50
2023-01-21T16:33:57.376Z,0.60
2023-01-21T16:36:25.411Z,0.60
2023-01-21T16:38:53.472Z,0.50
2023-01-21T16:41:27.392Z,0.60
2023-01-21T16:44:00.243Z,0.60
2023-01-21T16:46:34.557Z,0.70
2023-01-21T16:49:04.802Z,0.70
2023-01-21T16:51:36.228Z,0.70
2023-01-21T16:54:25.118Z,0.60
2023-01-21T16:57:00.006Z,0.70
2023-01-21T16:59:31.694Z,0.60
2023-01-21T17:02:00.747Z,0.60
2023-01-21T17:04:30.572Z,0.70
2023-01-21T17:06:59.411Z,0.70
2023-01-21T17:09:33.050Z,0.70
2023-01-21T17:12:09.248Z,0.70
2023-01-21T17:14:41.196Z,0.70
2023-01-21T17:17:10.014Z,0.80
2023-01-21T17:19:43.426Z,0.80
2023-01-21T17:22:17.197Z,0.80
2023-01-21T17:25:04.359Z,0.80
2023-01-21T17:27:37.601Z,0.80
2023-01-21T17:30:26.782Z,0.80
2023-01-21T17:32:57.635Z,0.80
2023-01-21T17:35:27.568Z,0.80
2023-01-21T17:37:58.874Z,0.80
2023-01-21T17:40:31.771Z,0.70
2023-01-21T17:43:15.130Z,0.80
2023-01-21T17:45:47.041Z,0.90
2023-01-21T17:48:27.549Z,0.90
2023-01-21T17:51:03.102Z,0.90
2023-01-21T17:53:31.992Z,0.90
2023-01-21T17:56:03.354Z,0.90
2023-01-21T17:58:53.876Z,0.90
2023-01-21T18:01:22.713Z,1.00
2023-01-21T18:03:52.229Z,0.90
2023-01-21T18:06:28.905Z,1.00
2023-01-21T18:08:58.665Z,0.90
2023-01-21T18:11:26.752Z,0.90
2023-01-21T18:13:56.628Z,0.90
2023-01-21T18:16:25.053Z,0.90
2023-01-21T18:18:54.213Z,0.90
2023-01-21T18:21:22.650Z,1.00
2023-01-21T18:23:51.260Z,1.00
2023-01-21T18:26:29.313Z,0.90
2023-01-21T18:28:58.700Z,0.90
2023-01-21T18:31:26.865Z,0.90
2023-01-21T18:33:54.897Z,0.90
2023-01-21T18:36:22.849Z,0.90
2023-01-21T18:38:50.784Z,1.00
2023-01-21T18:41:18.763Z,1.00
2023-01-21T18:43:46.865Z,1.00
2023-01-21T18:46:16.442Z,0.90
2023-01-21T18:48:44.530Z,1.00
2023-01-21T18:51:14.852Z,0.90
2023-01-21T18:53:42.886Z,1.00
2023-01-21T18:56:15.212Z,1.00
2023-01-21T18:58:43.626Z,1.00
2023-01-21T19:01:22.650Z,1.00
2023-01-21T19:03:55.141Z,1.10
2023-01-21T19:06:25.887Z,1.00
2023-01-21T19:08:54.964Z,1.10
2023-01-21T19:11:23.097Z,1.10
2023-01-21T19:13:51.091Z,1.00
2023-01-21T19:16:21.586Z,1.00
2023-01-21T19:18:49.784Z,1.00
2023-01-21T19:21:19.261Z,1.00
2023-01-21T19:23:47.375Z,1.00
2023-01-21T19:26:15.446Z,1.00
2023-01-21T19:28:43.493Z,1.10
2023-01-21T19:31:11.485Z,1.00
2023-01-21T19:33:41.905Z,1.00
2023-01-21T19:36:16.359Z,1.00
2023-01-21T19:38:51.674Z,1.00
2023-01-21T19:41:19.647Z,1.00
2023-01-21T19:43:47.781Z,1.00
2023-01-21T19:46:15.924Z,1.00
2023-01-21T19:48:44.419Z,0.90
2023-01-21T19:51:12.521Z,1.00
2023-01-21T19:53:40.631Z,1.00
2023-01-21T19:56:16.958Z,1.10
2023-01-21T19:58:44.935Z,1.10
2023-01-21T20:01:13.005Z,1.10
2023-01-21T20:03:54.715Z,1.10
2023-01-21T20:06:26.930Z,1.10
2023-01-21T20:08:55.031Z,1.10
2023-01-21T20:11:24.304Z,1.10
2023-01-21T20:13:52.272Z,1.10
2023-01-21T20:16:21.689Z,1.00
2023-01-21T20:18:49.848Z,1.00
2023-01-21T20:21:17.941Z,1.10
2023-01-21T20:23:45.917Z,1.00
2023-01-21T20:26:20.673Z,1.10
2023-01-21T20:28:51.470Z,1.10
2023-01-21T20:31:20.228Z,1.10
2023-01-21T20:33:48.410Z,1.10
2023-01-21T20:36:20.939Z,1.10
2023-01-21T20:38:49.468Z,1.10
2023-01-21T20:41:17.863Z,1.10
2023-01-21T20:43:45.883Z,1.00
2023-01-21T20:46:20.303Z,1.00
2023-01-21T20:48:48.846Z,1.00
2023-01-21T20:51:16.861Z,1.00
2023-01-21T20:53:44.944Z,1.00
2023-01-21T20:56:22.021Z,1.00
2023-01-21T20:58:51.000Z,1.00
2023-01-21T21:01:23.767Z,1.00
2023-01-21T21:03:52.376Z,1.00
2023-01-21T21:06:22.684Z,1.00
2023-01-21T21:08:51.544Z,1.10
2023-01-21T21:11:20.371Z,1.10
2023-01-21T21:13:51.968Z,1.10
2023-01-21T21:16:24.766Z,1.10
2023-01-21T21:18:52.747Z,1.00
2023-01-21T21:21:23.519Z,1.10
2023-01-21T21:23:52.327Z,1.10
2023-01-21T21:26:24.419Z,1.20
2023-01-21T21:28:55.223Z,1.10
2023-01-21T21:31:26.647Z,1.10
2023-01-21T21:33:54.630Z,1.10
2023-01-21T21:36:24.936Z,1.10
2023-01-21T21:38:55.563Z,1.10
2023-01-21T21:41:44.405Z,1.20
2023-01-21T21:44:13.613Z,1.10
2023-01-21T21:47:00.778Z,1.10
2023-01-21T21:49:30.247Z,1.10
2023-01-21T21:52:00.034Z,1.10
2023-01-21T21:54:28.178Z,1.20
2023-01-21T21:56:56.901Z,1.20
2023-01-21T21:59:24.837Z,1.10
2023-01-21T22:01:54.154Z,1.10
2023-01-21T22:04:23.513Z,1.20
2023-01-21T22:06:51.446Z,1.20
2023-01-21T22:09:19.872Z,1.20
2023-01-21T22:11:47.783Z,1.20
2023-01-21T22:14:16.002Z,1.20
2023-01-21T22:16:44.294Z,1.20
2023-01-21T22:19:13.993Z,1.10
2023-01-21T22:21:41.883Z,1.20
2023-01-21T22:24:11.205Z,1.20
2023-01-21T22:26:39.430Z,1.20
2023-01-21T22:29:07.520Z,1.10
2023-01-21T22:31:35.946Z,1.20
2023-01-21T22:34:05.164Z,1.20
2023-01-21T22:36:34.485Z,1.20
2023-01-21T22:39:02.500Z,1.10
2023-01-21T22:41:30.618Z,1.20
2023-01-21T22:43:59.291Z,1.20
2023-01-21T22:46:30.390Z,1.20
2023-01-21T22:48:58.927Z,1.20
2023-01-21T22:51:28.130Z,1.20
2023-01-21T22:53:57.505Z,1.20
2023-01-21T22:56:44.796Z,1.20
2023-01-21T22:59:14.357Z,1.20
2023-01-21T23:01:42.742Z,1.20
2023-01-21T23:04:11.329Z,1.20
2023-01-21T23:06:39.339Z,1.20
2023-01-21T23:09:11.283Z,1.20
2023-01-21T23:11:39.943Z,1.20
2023-01-21T23:14:10.368Z,1.20
2023-01-21T23:16:38.423Z,1.20
2023-01-21T23:19:06.567Z,1.20
2023-01-21T23:21:34.489Z,1.20
2023-01-21T23:24:02.447Z,1.20
2023-01-21T23:26:31.888Z,1.30
2023-01-21T23:28:59.947Z,1.20
2023-01-21T23:31:28.129Z,1.20
2023-01-21T23:33:57.302Z,1.20
2023-01-21T23:36:25.584Z,1.20
2023-01-21T23:38:53.528Z,1.20
2023-01-21T23:41:21.609Z,1.20
2023-01-21T23:43:50.815Z,1.20
2023-01-21T23:46:20.373Z,1.20
2023-01-21T23:48:48.544Z,1.20
2023-01-21T23:51:18.860Z,1.20
2023-01-21T23:53:47.617Z,1.20
2023-01-21T23:56:18.362Z,1.20
2023-01-21T23:58:46.292Z,1.20
